Terminal Aerodrome Forecast
Issued by NWS

Home | Current Version | Previous Version | Graphics & Text | Print | Product List | Glossary On
Versions: 1 2 3 4 5 6 7 8 9 10 11 12 13 14 15 16 17
000
FTUS43 KTOP 222300
TAFFOE
TAF
KFOE 222320Z 2300/2324 16012KT P6SM FEW040 BKN200
     FM230400 17008KT 6SM -SHRA BR OVC023
     FM231100 19006KT 6SM BR OVC015
     FM231700 21008KT P6SM BKN024
     FM232200 20006KT P6SM SCT030=

USA.gov is the U.S. government's official web portal to all federal, state and local government web resources and services.